KETH

Wheaton Municipal Airport

Wheaton, Minnesota, USA
METAR KETH 201954Z AUTO 35012G18KT 10SM SCT041 23/13 A3007 RMK AO2
Observed Flight Rules
Aug-20 @ 19:54 UTC (35 minutes ago) Visual Flight Rules
Wind Visibility Clouds
350° at 12 knots
 Gusting to 18 knots
10 miles
  • Scattered at 4,100' AGL
Temperatures Readings
Current 23°C / 73°F
Dewpoint 13°C / 55°F
Humidity 53%
Altimeter 30.07" Hg
Pressure 1018 hPa
Elevation 313
METAR KETH 201954Z AUTO 35012G18KT 10SM SCT041 23/13 A3007 RMK AO2
Observed Flight Rules
Aug-20 @ 19:54 UTC
(35 minutes ago)
VFR
Wind Visibility
350° at 12 knots
 Gusting to 18 knots
10 miles
Clouds
  • Scattered at 4,100' AGL
Temperature Dewpoint
23°C / 73°F 13°C / 55°F
Humidity Altimeter Pressure
53% 30.07" Hg 1018 hPa